Time;durP1;ratioP1;P1;durP2;ratioP2;P2;SDS_P1;SDS_P2;PMS_P1;PMS_P2;Temp;Humidity;BMP_temperature;BMP_pressure;BME280_temperature;BME280_humidity;BME280_pressure;Samples;Min_cycle;Max_cycle;Signal;HPM_P1;HPM_P2
2022/05/09 00:02:19;;;;;;;11.50;5.90;;;8.30;88.80;;;;;;5117027;28;20487;-76
2022/05/09 00:04:49;;;;;;;8.50;6.10;;;8.30;88.90;;;;;;5115487;28;20447;-75
2022/05/09 00:07:17;;;;;;;10.80;5.70;;;8.30;89.20;;;;;;5115380;28;20501;-75
2022/05/09 00:09:45;;;;;;;12.20;6.90;;;8.20;89.20;;;;;;5115251;28;20474;-75
2022/05/09 00:12:13;;;;;;;8.80;5.23;;;8.20;89.30;;;;;;5115446;28;20947;-75
2022/05/09 00:14:42;;;;;;;15.73;6.40;;;8.10;89.30;;;;;;5115310;28;20446;-75
2022/05/09 00:17:10;;;;;;;12.70;6.57;;;8.10;89.40;;;;;;5115241;28;20488;-75
2022/05/09 00:19:38;;;;;;;10.03;5.97;;;8.10;89.50;;;;;;5115029;28;20832;-76
2022/05/09 00:22:08;;;;;;;8.40;6.13;;;8.10;89.60;;;;;;5116543;28;20794;-76
2022/05/09 00:24:36;;;;;;;9.80;6.70;;;8.10;89.60;;;;;;5115233;28;20450;-76
2022/05/09 00:27:05;;;;;;;9.17;6.37;;;8.00;89.50;;;;;;5116409;28;20473;-76
2022/05/09 00:29:34;;;;;;;9.90;5.80;;;8.00;89.60;;;;;;5115193;28;20936;-75
2022/05/09 00:32:02;;;;;;;8.30;6.20;;;8.00;89.70;;;;;;5114876;28;20944;-75
2022/05/09 00:34:30;;;;;;;8.30;5.70;;;7.90;89.60;;;;;;5114777;28;20441;-76
2022/05/09 00:36:59;;;;;;;8.33;5.53;;;7.90;89.70;;;;;;5114784;28;20508;-76
2022/05/09 00:39:29;;;;;;;11.70;6.10;;;7.90;89.80;;;;;;5114736;28;20447;-75
2022/05/09 00:42:07;;;;;;;8.27;5.60;;;7.90;90.00;;;;;;5114691;28;20533;-75
2022/05/09 00:44:36;;;;;;;7.40;5.20;;;7.80;90.00;;;;;;5114715;28;20492;-75
2022/05/09 00:47:05;;;;;;;8.40;5.73;;;7.80;90.00;;;;;;5114753;28;20979;-75
2022/05/09 00:49:38;;;;;;;9.80;5.87;;;7.80;90.00;;;;;;5114545;28;20530;-75
2022/05/09 00:52:13;;;;;;;12.00;5.80;;;7.70;90.00;;;;;;5114604;28;20438;-75
2022/05/09 00:54:46;;;;;;;9.23;5.20;;;7.70;90.00;;;;;;5114501;28;20435;-75
2022/05/09 00:57:20;;;;;;;8.63;6.27;;;7.70;90.00;;;;;;5116005;28;20912;-76
2022/05/09 00:59:50;;;;;;;9.23;5.80;;;7.60;90.00;;;;;;5114325;28;20497;-76
2022/05/09 01:02:19;;;;;;;10.17;5.43;;;7.60;90.00;;;;;;5114342;28;20806;-76
2022/05/09 01:04:52;;;;;;;8.73;5.80;;;7.60;90.00;;;;;;5114187;28;20443;-75
2022/05/09 01:07:21;;;;;;;7.63;4.53;;;7.50;90.10;;;;;;5114239;28;20979;-76
2022/05/09 01:09:51;;;;;;;9.57;6.33;;;7.50;90.10;;;;;;5115658;28;20446;-75
2022/05/09 01:12:23;;;;;;;10.27;5.00;;;7.50;90.20;;;;;;5114149;28;21042;-76
2022/05/09 01:14:54;;;;;;;10.87;6.07;;;7.50;90.40;;;;;;5114023;28;20811;-75
2022/05/09 01:17:23;;;;;;;10.97;5.87;;;7.40;90.30;;;;;;5115297;28;20415;-75
2022/05/09 01:19:55;;;;;;;7.77;5.50;;;7.40;90.30;;;;;;5113867;27;21010;-75
2022/05/09 01:22:27;;;;;;;12.80;7.03;;;7.40;90.30;;;;;;5115767;28;20499;-75
2022/05/09 01:25:02;;;;;;;11.80;6.33;;;7.40;90.50;;;;;;5115161;28;20472;-75
2022/05/09 01:27:31;;;;;;;10.97;6.37;;;7.30;90.50;;;;;;5113935;28;20511;-75
2022/05/09 01:30:03;;;;;;;9.77;6.00;;;7.30;90.60;;;;;;5113713;28;20459;-76
2022/05/09 01:32:36;;;;;;;10.67;5.70;;;7.20;90.70;;;;;;5113708;28;20486;-76
2022/05/09 01:35:13;;;;;;;8.23;6.37;;;7.20;90.70;;;;;;5114162;28;20442;-76
2022/05/09 01:37:46;;;;;;;7.90;5.90;;;7.20;90.70;;;;;;5114753;28;20505;-76
2022/05/09 01:40:15;;;;;;;9.70;6.20;;;7.20;90.80;;;;;;5113595;28;20466;-75
2022/05/09 01:42:44;;;;;;;9.20;5.73;;;7.20;90.80;;;;;;5113457;28;20451;-75
2022/05/09 01:45:13;;;;;;;8.30;5.57;;;7.10;90.80;;;;;;5115015;28;20445;-75
2022/05/09 01:50:34;;;;;;;11.17;5.90;;;7.10;90.80;;;;;;5113477;28;20475;-75
2022/05/09 01:53:04;;;;;;;9.37;5.40;;;7.00;90.80;;;;;;5113357;28;20447;-75
2022/05/09 01:55:33;;;;;;;11.13;6.80;;;7.00;90.80;;;;;;5113285;28;20502;-75
2022/05/09 01:58:01;;;;;;;10.90;6.40;;;7.00;90.80;;;;;;5113333;28;20484;-75
2022/05/09 02:00:31;;;;;;;8.63;5.47;;;7.00;90.80;;;;;;5115030;28;20528;-75
2022/05/09 02:03:00;;;;;;;10.63;5.80;;;7.00;90.80;;;;;;5113174;28;20448;-75
2022/05/09 02:05:28;;;;;;;10.90;6.67;;;6.90;90.80;;;;;;5114435;27;20803;-75
2022/05/09 02:07:56;;;;;;;10.57;6.20;;;6.90;90.80;;;;;;5114679;28;20495;-75
2022/05/09 02:10:26;;;;;;;6.73;5.77;;;6.90;90.80;;;;;;5112850;28;20575;-76
2022/05/09 02:12:54;;;;;;;11.97;6.47;;;6.90;90.90;;;;;;5113090;28;20447;-75
2022/05/09 02:15:22;;;;;;;7.73;5.80;;;6.80;90.80;;;;;;5113229;28;20790;-75
2022/05/09 02:17:50;;;;;;;8.10;5.50;;;6.80;90.80;;;;;;5113263;28;20449;-76
2022/05/09 02:20:19;;;;;;;7.63;5.73;;;6.80;90.80;;;;;;5112867;28;20472;-76
2022/05/09 02:22:47;;;;;;;8.33;5.20;;;6.80;90.80;;;;;;5112760;28;20546;-75
2022/05/09 02:25:29;;;;;;;11.80;6.23;;;6.70;90.80;;;;;;5114331;28;20434;-75
2022/05/09 02:27:59;;;;;;;11.70;6.30;;;6.70;90.80;;;;;;5114378;28;20608;-76
2022/05/09 02:30:27;;;;;;;9.50;5.63;;;6.70;90.80;;;;;;5114126;28;21060;-76
2022/05/09 02:32:56;;;;;;;9.83;6.37;;;6.70;90.90;;;;;;5114122;28;20458;-75
2022/05/09 02:35:24;;;;;;;11.83;6.23;;;6.60;90.90;;;;;;5113988;28;20526;-75
2022/05/09 02:37:53;;;;;;;9.70;6.50;;;6.60;90.90;;;;;;5113854;28;20439;-76
2022/05/09 02:40:24;;;;;;;7.83;5.73;;;6.60;90.90;;;;;;5112585;28;20566;-75
2022/05/09 02:42:52;;;;;;;8.40;5.53;;;6.60;91.00;;;;;;5113856;28;20443;-75
2022/05/09 02:45:22;;;;;;;8.83;5.97;;;6.60;91.00;;;;;;5112515;28;20823;-75
2022/05/09 02:47:51;;;;;;;9.17;6.03;;;6.50;91.00;;;;;;5112535;28;20492;-75
2022/05/09 02:50:21;;;;;;;11.77;6.40;;;6.50;91.00;;;;;;5112528;28;20477;-75
2022/05/09 02:52:50;;;;;;;8.83;5.90;;;6.50;91.30;;;;;;5114412;28;20910;-76
2022/05/09 02:55:19;;;;;;;8.47;5.40;;;6.50;91.10;;;;;;5112548;28;20853;-75
2022/05/09 02:57:48;;;;;;;10.47;5.70;;;6.40;91.10;;;;;;5112541;28;20849;-75
2022/05/09 03:00:19;;;;;;;9.90;5.70;;;6.40;91.10;;;;;;5112607;28;20499;-75
2022/05/09 03:05:33;;;;;;;7.87;5.80;;;6.30;91.10;;;;;;5113897;28;20928;-76
2022/05/09 03:08:02;;;;;;;8.00;7.00;;;6.30;91.10;;;;;;5112342;28;20463;-75
2022/05/09 03:10:31;;;;;;;11.57;6.93;;;6.30;91.10;;;;;;5113948;28;20469;-76
2022/05/09 03:13:01;;;;;;;7.43;5.20;;;6.30;91.10;;;;;;5114043;28;20510;-76
2022/05/09 03:15:30;;;;;;;10.00;5.90;;;6.20;91.10;;;;;;5112525;28;20445;-76
2022/05/09 03:17:59;;;;;;;9.13;6.30;;;6.20;91.40;;;;;;5113562;28;20437;-76
2022/05/09 03:20:28;;;;;;;8.07;6.50;;;6.20;91.10;;;;;;5113734;28;20451;-76
2022/05/09 03:22:56;;;;;;;13.93;6.33;;;6.20;91.10;;;;;;5117555;28;20453;-76
2022/05/09 03:25:26;;;;;;;8.17;5.50;;;6.20;91.20;;;;;;5116340;28;20465;-76
2022/05/09 03:27:54;;;;;;;7.63;5.87;;;6.10;91.10;;;;;;5116324;28;20498;-76
2022/05/09 03:30:22;;;;;;;7.37;5.10;;;6.10;91.20;;;;;;5116140;28;20828;-76
2022/05/09 03:32:52;;;;;;;9.80;5.90;;;6.10;91.20;;;;;;5117325;28;20452;-76
2022/05/09 03:35:22;;;;;;;9.47;5.77;;;6.10;91.20;;;;;;5117471;28;20426;-75
2022/05/09 03:37:50;;;;;;;7.27;5.80;;;6.10;91.20;;;;;;5115945;28;20504;-76
2022/05/09 03:40:20;;;;;;;8.10;6.33;;;6.00;91.20;;;;;;5116005;28;20464;-76
2022/05/09 03:42:48;;;;;;;11.57;6.00;;;6.00;91.20;;;;;;5115976;28;20451;-76
2022/05/09 03:45:17;;;;;;;9.67;6.80;;;6.00;91.20;;;;;;5117487;28;20520;-76
2022/05/09 03:47:45;;;;;;;9.20;6.53;;;6.00;91.20;;;;;;5116409;28;20464;-76
2022/05/09 03:50:15;;;;;;;12.73;8.50;;;6.00;91.30;;;;;;5115821;28;20472;-76
2022/05/09 03:52:46;;;;;;;11.10;8.70;;;5.90;91.30;;;;;;5115835;28;20448;-76
2022/05/09 03:55:15;;;;;;;13.10;8.43;;;6.00;91.30;;;;;;5117750;28;20426;-76
2022/05/09 03:57:48;;;;;;;10.57;7.80;;;5.90;91.30;;;;;;5115708;28;20442;-76
2022/05/09 04:00:18;;;;;;;19.07;11.07;;;6.00;91.40;;;;;;5115658;28;20489;-76
2022/05/09 04:02:46;;;;;;;14.97;10.90;;;5.90;91.40;;;;;;5116695;28;20866;-76
2022/05/09 04:05:17;;;;;;;13.47;10.13;;;5.90;91.40;;;;;;5115549;28;20448;-75
2022/05/09 04:07:49;;;;;;;13.40;9.37;;;5.90;91.40;;;;;;5115392;28;20514;-76
2022/05/09 04:10:19;;;;;;;8.17;7.20;;;5.90;91.50;;;;;;5115632;28;20565;-75
2022/05/09 04:12:47;;;;;;;10.00;8.20;;;5.90;91.50;;;;;;5117263;28;20498;-75
2022/05/09 04:18:05;;;;;;;11.93;7.83;;;5.90;91.60;;;;;;5091054;28;20801;-76
2022/05/09 04:20:34;;;;;;;12.97;8.40;;;5.90;91.60;;;;;;5115413;28;20998;-75
2022/05/09 04:23:04;;;;;;;20.90;12.17;;;5.90;91.70;;;;;;5116388;28;20438;-75
2022/05/09 04:25:32;;;;;;;13.23;9.40;;;5.90;91.80;;;;;;5115229;28;20431;-75
2022/05/09 04:28:03;;;;;;;12.00;8.33;;;5.90;91.90;;;;;;5116426;28;20499;-75
2022/05/09 04:30:31;;;;;;;12.67;7.60;;;5.90;92.00;;;;;;5114917;28;20467;-75
2022/05/09 04:33:02;;;;;;;11.13;7.80;;;5.90;92.00;;;;;;5114469;28;20485;-75
2022/05/09 04:35:31;;;;;;;11.07;7.90;;;5.90;92.10;;;;;;5115933;28;20443;-76
2022/05/09 04:38:00;;;;;;;12.77;8.30;;;5.90;92.20;;;;;;5114571;28;20466;-75
2022/05/09 04:40:32;;;;;;;11.83;8.10;;;6.00;92.30;;;;;;5115982;28;20542;-75
2022/05/09 04:43:01;;;;;;;11.83;7.40;;;6.00;92.50;;;;;;5114772;28;20535;-75
2022/05/09 04:45:31;;;;;;;10.20;8.40;;;6.00;92.70;;;;;;5114701;28;20435;-75
2022/05/09 04:48:00;;;;;;;12.23;9.10;;;6.10;92.90;;;;;;5114633;28;20463;-75
2022/05/09 04:50:29;;;;;;;12.40;9.80;;;6.10;93.10;;;;;;5115669;28;20471;-75
2022/05/09 04:52:57;;;;;;;13.70;8.87;;;6.20;93.30;;;;;;5114475;28;20505;-75
2022/05/09 04:55:26;;;;;;;12.80;9.03;;;6.20;93.50;;;;;;5115969;28;20439;-75
2022/05/09 04:57:56;;;;;;;11.97;9.13;;;6.30;93.70;;;;;;5115784;28;20890;-75
2022/05/09 05:00:27;;;;;;;12.43;8.77;;;6.30;93.90;;;;;;5114216;28;20480;-76
2022/05/09 05:02:56;;;;;;;14.10;9.73;;;6.40;94.10;;;;;;5114483;28;20502;-75
2022/05/09 05:05:25;;;;;;;15.37;9.77;;;6.40;94.30;;;;;;5114298;28;20494;-75
2022/05/09 05:07:54;;;;;;;11.23;9.10;;;6.50;94.50;;;;;;5114123;28;20467;-74
2022/05/09 05:10:28;;;;;;;16.13;10.33;;;6.60;94.70;;;;;;5114011;28;20537;-74
2022/05/09 05:12:59;;;;;;;13.47;9.30;;;6.60;94.80;;;;;;5115509;28;20546;-75
2022/05/09 05:15:28;;;;;;;13.33;9.40;;;6.70;95.00;;;;;;5115700;28;20519;-75
2022/05/09 05:17:56;;;;;;;15.30;9.90;;;6.70;95.20;;;;;;5115546;28;20452;-75
2022/05/09 05:20:25;;;;;;;13.50;9.10;;;6.80;95.40;;;;;;5113925;28;20468;-75
2022/05/09 05:22:54;;;;;;;11.97;9.53;;;6.90;95.60;;;;;;5115217;28;20455;-75
2022/05/09 05:25:24;;;;;;;18.50;9.70;;;6.90;95.70;;;;;;5113847;28;21033;-75
2022/05/09 05:27:53;;;;;;;15.30;10.30;;;7.00;95.90;;;;;;5114981;28;20543;-75
2022/05/09 05:30:23;;;;;;;18.67;10.13;;;7.10;96.10;;;;;;5113829;28;20502;-75
2022/05/09 05:32:52;;;;;;;11.93;9.10;;;7.20;96.40;;;;;;5115006;28;20429;-75
2022/05/09 05:35:23;;;;;;;15.40;12.43;;;7.30;96.50;;;;;;5113540;28;20482;-75
2022/05/09 05:37:52;;;;;;;13.53;9.70;;;7.30;96.60;;;;;;5114833;28;20422;-75
2022/05/09 05:40:21;;;;;;;12.30;8.37;;;7.40;96.70;;;;;;5113969;28;20987;-74
2022/05/09 05:42:49;;;;;;;11.40;8.40;;;7.50;96.90;;;;;;5115315;28;20447;-75
2022/05/09 05:45:19;;;;;;;11.40;8.30;;;7.70;97.00;;;;;;5114526;28;20427;-74
2022/05/09 05:47:49;;;;;;;12.50;8.03;;;7.80;97.10;;;;;;5113751;28;20519;-74
2022/05/09 05:50:20;;;;;;;12.93;8.47;;;8.10;97.20;;;;;;5113584;28;20470;-74
2022/05/09 05:52:48;;;;;;;11.60;8.50;;;8.30;97.30;;;;;;5114895;28;20427;-74
2022/05/09 05:55:19;;;;;;;11.10;7.37;;;8.60;97.40;;;;;;5113427;28;20439;-75
2022/05/09 05:57:48;;;;;;;12.47;7.27;;;8.80;97.50;;;;;;5113648;28;20542;-74
2022/05/09 06:00:20;;;;;;;11.77;7.53;;;9.20;97.60;;;;;;5114781;28;20816;-75
2022/05/09 06:02:50;;;;;;;11.00;7.40;;;9.50;97.60;;;;;;5115270;28;20431;-75
2022/05/09 06:05:20;;;;;;;13.47;7.63;;;9.80;97.60;;;;;;5113616;28;20571;-75
2022/05/09 06:07:49;;;;;;;6.93;6.00;;;10.10;97.10;;;;;;5113384;28;20443;-75
2022/05/09 06:10:18;;;;;;;9.30;6.30;;;10.40;96.90;;;;;;5114705;28;20450;-75
2022/05/09 06:12:46;;;;;;;8.27;5.83;;;10.80;96.80;;;;;;5113053;28;20479;-75
2022/05/09 06:15:28;;;;;;;9.93;5.70;;;11.10;96.70;;;;;;5113066;28;20447;-75
2022/05/09 06:17:59;;;;;;;10.17;6.77;;;11.40;96.60;;;;;;5113099;28;20500;-75
2022/05/09 06:20:30;;;;;;;12.57;6.17;;;11.70;96.40;;;;;;5112800;28;20516;-75
2022/05/09 06:22:59;;;;;;;8.40;5.77;;;12.00;96.20;;;;;;5114115;28;20458;-75
2022/05/09 06:25:28;;;;;;;10.40;6.23;;;12.30;96.10;;;;;;5112770;28;20450;-75
2022/05/09 06:27:58;;;;;;;12.83;5.70;;;12.60;95.90;;;;;;5112636;28;20439;-76
2022/05/09 06:30:27;;;;;;;10.17;5.60;;;12.90;95.70;;;;;;5113025;28;20467;-75
2022/05/09 06:32:56;;;;;;;9.80;4.93;;;13.20;95.40;;;;;;5110495;28;20854;-75
2022/05/09 06:35:27;;;;;;;8.10;4.50;;;13.40;95.10;;;;;;5110526;28;20438;-76
2022/05/09 06:37:58;;;;;;;7.20;4.67;;;13.70;94.80;;;;;;5110381;28;20875;-76
2022/05/09 06:40:29;;;;;;;6.90;4.70;;;13.90;94.50;;;;;;5110475;28;20463;-75
2022/05/09 06:42:57;;;;;;;7.87;4.57;;;14.10;94.30;;;;;;5110499;28;20443;-75
2022/05/09 06:45:29;;;;;;;7.47;4.33;;;14.40;94.00;;;;;;5110793;28;20520;-76
2022/05/09 06:47:58;;;;;;;6.10;4.33;;;14.60;93.70;;;;;;5112515;28;20501;-76
2022/05/09 06:50:31;;;;;;;9.27;5.13;;;14.80;93.40;;;;;;5113531;28;20475;-75
2022/05/09 06:53:03;;;;;;;5.23;4.67;;;15.00;93.20;;;;;;5112488;28;20445;-76
2022/05/09 06:55:48;;;;;;;8.80;4.00;;;15.20;92.90;;;;;;5116224;28;20492;-76
2022/05/09 06:58:21;;;;;;;7.73;3.53;;;15.40;92.80;;;;;;5116638;28;20447;-76
2022/05/09 07:00:50;;;;;;;9.00;4.47;;;15.60;92.80;;;;;;5116510;28;20456;-76
2022/05/09 07:03:19;;;;;;;8.33;4.80;;;15.80;92.60;;;;;;5116982;28;20461;-76
2022/05/09 07:05:51;;;;;;;7.43;4.03;;;16.10;92.60;;;;;;5118202;28;20964;-76
2022/05/09 07:08:22;;;;;;;8.40;3.70;;;16.40;92.50;;;;;;5117794;28;20402;-76
2022/05/09 07:10:51;;;;;;;7.10;3.90;;;16.60;92.30;;;;;;5116460;28;20459;-76
2022/05/09 07:13:39;;;;;;;5.67;4.03;;;16.90;92.40;;;;;;5116763;28;20482;-76
2022/05/09 07:16:08;;;;;;;11.53;7.30;;;17.20;91.80;;;;;;5116799;28;20517;-76
2022/05/09 07:18:39;;;;;;;11.00;8.47;;;17.40;91.50;;;;;;5117868;28;20426;-76
2022/05/09 07:21:09;;;;;;;7.10;3.90;;;17.50;91.30;;;;;;5118059;28;20430;-76
2022/05/09 07:23:37;;;;;;;5.67;3.80;;;17.60;91.00;;;;;;5116471;28;20473;-76
2022/05/09 07:26:06;;;;;;;6.30;4.00;;;17.80;91.00;;;;;;5116196;28;20465;-76
2022/05/09 07:28:34;;;;;;;10.20;5.50;;;18.00;90.90;;;;;;5116163;28;20443;-76
2022/05/09 07:31:03;;;;;;;9.47;4.77;;;18.30;90.90;;;;;;5117326;28;20459;-76
2022/05/09 07:33:31;;;;;;;5.30;3.60;;;18.50;90.80;;;;;;5116093;28;20447;-76
2022/05/09 07:35:59;;;;;;;8.83;4.07;;;18.70;90.50;;;;;;5115973;28;20438;-76
2022/05/09 07:38:30;;;;;;;7.50;4.27;;;18.80;90.00;;;;;;5117261;28;20573;-76
2022/05/09 07:40:58;;;;;;;8.27;4.93;;;18.90;89.70;;;;;;5115850;28;20913;-76
2022/05/09 07:43:28;;;;;;;5.70;4.13;;;19.00;89.80;;;;;;5115975;28;20508;-76
2022/05/09 07:45:57;;;;;;;8.47;3.90;;;19.20;89.40;;;;;;5117428;28;20461;-76
2022/05/09 07:48:27;;;;;;;10.30;4.53;;;19.30;89.10;;;;;;5116999;28;20439;-76
2022/05/09 07:50:57;;;;;;;5.13;4.37;;;19.40;88.60;;;;;;5116898;28;20847;-76
2022/05/09 07:53:28;;;;;;;8.17;4.40;;;19.50;87.80;;;;;;5115665;28;20488;-76
2022/05/09 07:56:04;;;;;;;8.27;4.60;;;19.60;87.70;;;;;;5116956;28;20430;-75
2022/05/09 07:58:33;;;;;;;7.83;4.97;;;19.70;87.20;;;;;;5115767;28;20439;-76
2022/05/09 08:01:02;;;;;;;9.17;4.53;;;19.80;87.00;;;;;;5115638;28;20463;-75
2022/05/09 08:03:33;;;;;;;7.57;4.70;;;19.90;86.90;;;;;;5116730;28;20495;-76
2022/05/09 08:06:02;;;;;;;9.13;3.90;;;20.10;86.80;;;;;;5116981;28;20793;-76
2022/05/09 08:08:32;;;;;;;6.63;4.50;;;20.20;86.10;;;;;;5114804;28;20964;-75
2022/05/09 08:11:02;;;;;;;5.90;4.03;;;20.30;85.90;;;;;;5115438;28;20474;-76
2022/05/09 08:13:33;;;;;;;6.93;3.80;;;20.40;85.90;;;;;;5115356;28;20496;-76
2022/05/09 08:16:04;;;;;;;7.90;3.50;;;20.60;85.60;;;;;;5116768;27;20428;-76
2022/05/09 08:18:33;;;;;;;6.07;3.53;;;20.70;85.30;;;;;;5115157;28;20432;-76
2022/05/09 08:21:02;;;;;;;7.70;3.60;;;20.80;85.10;;;;;;5115114;28;20542;-76
2022/05/09 08:23:31;;;;;;;4.87;4.00;;;20.90;84.70;;;;;;5116864;28;20483;-76
2022/05/09 08:26:03;;;;;;;5.70;3.70;;;21.00;84.00;;;;;;5116496;28;20527;-76
2022/05/09 08:28:32;;;;;;;10.13;6.50;;;21.10;83.10;;;;;;5115270;28;20999;-76
2022/05/09 08:31:00;;;;;;;12.67;7.20;;;21.10;82.60;;;;;;5115135;28;20478;-76
2022/05/09 08:33:30;;;;;;;10.43;6.40;;;21.10;82.70;;;;;;5114882;28;20480;-76
2022/05/09 08:35:58;;;;;;;7.47;3.13;;;21.20;82.60;;;;;;5116578;28;20437;-76
2022/05/09 08:38:26;;;;;;;6.13;3.13;;;21.30;82.50;;;;;;5116430;28;20443;-76
2022/05/09 08:41:15;;;;;;;5.80;3.17;;;21.30;82.00;;;;;;5114972;28;21004;-76
2022/05/09 08:43:59;;;;;;;7.07;3.10;;;21.40;81.90;;;;;;5116310;28;20485;-77
2022/05/09 08:46:36;;;;;;;7.67;4.10;;;21.50;81.50;;;;;;5116281;28;20488;-77
2022/05/09 08:49:28;;;;;;;8.07;3.60;;;21.60;81.80;;;;;;5114688;28;20981;-76
2022/05/09 08:52:08;;;;;;;5.77;3.30;;;21.80;81.90;;;;;;5114687;28;20439;-77
2022/05/09 08:54:38;;;;;;;5.93;3.17;;;22.00;81.40;;;;;;5116140;28;20432;-77
2022/05/09 08:57:16;;;;;;;6.30;3.03;;;22.10;81.00;;;;;;5114518;28;20982;-77
2022/05/09 08:59:49;;;;;;;7.70;4.97;;;22.20;80.60;;;;;;5114561;28;20842;-77
2022/05/09 09:02:25;;;;;;;6.60;3.03;;;22.40;80.10;;;;;;5114548;28;20523;-76
2022/05/09 09:04:55;;;;;;;5.10;2.77;;;22.50;79.70;;;;;;5114310;28;20447;-77
2022/05/09 09:07:48;;;;;;;6.30;3.27;;;22.50;79.50;;;;;;5115834;28;20532;-76
2022/05/09 09:10:25;;;;;;;4.70;2.70;;;22.60;78.60;;;;;;5115674;28;20510;-76
2022/05/09 09:13:07;;;;;;;7.60;3.30;;;22.70;78.60;;;;;;5114743;28;20463;-76
2022/05/09 09:15:47;;;;;;;6.60;2.90;;;22.80;78.90;;;;;;5114533;28;20446;-76
2022/05/09 09:18:29;;;;;;;8.90;5.27;;;22.90;77.70;;;;;;5115195;28;20912;-76
2022/05/09 09:21:02;;;;;;;10.50;5.17;;;22.90;77.20;;;;;;5114259;28;20546;-76
2022/05/09 09:23:48;;;;;;;4.50;3.33;;;23.00;77.00;;;;;;5115870;27;20417;-77
2022/05/09 09:26:28;;;;;;;6.43;2.93;;;23.00;75.90;;;;;;5114336;28;20449;-76
2022/05/09 09:29:06;;;;;;;7.20;3.70;;;23.10;75.70;;;;;;5114584;28;20815;-76
2022/05/09 09:31:38;;;;;;;5.37;2.70;;;23.10;75.30;;;;;;5115451;28;20475;-76
2022/05/09 09:34:21;;;;;;;6.57;2.60;;;23.20;75.30;;;;;;5114164;28;20439;-76
2022/05/09 09:36:55;;;;;;;4.43;2.90;;;23.30;74.70;;;;;;5113923;28;20534;-76
2022/05/09 09:39:26;;;;;;;5.73;2.70;;;23.40;74.30;;;;;;5114064;28;20474;-76
2022/05/09 09:41:56;;;;;;;6.00;3.23;;;23.50;73.90;;;;;;5113902;28;20929;-77
2022/05/09 09:44:27;;;;;;;4.00;2.30;;;23.60;74.30;;;;;;5114028;28;20446;-76
2022/05/09 09:47:07;;;;;;;4.50;2.87;;;23.60;73.00;;;;;;5115217;28;20424;-76
2022/05/09 09:49:38;;;;;;;5.43;2.40;;;23.70;72.60;;;;;;5113696;28;20528;-76
2022/05/09 09:52:17;;;;;;;11.87;3.47;;;23.70;72.20;;;;;;5115067;28;20418;-76
2022/05/09 09:54:52;;;;;;;11.50;6.40;;;23.80;71.60;;;;;;5114926;28;20443;-78
2022/05/09 09:57:22;;;;;;;4.90;2.80;;;23.90;71.30;;;;;;5115407;28;20457;-78
2022/05/09 09:59:52;;;;;;;4.70;2.50;;;23.90;70.90;;;;;;5116116;28;21026;-78
2022/05/09 10:02:26;;;;;;;8.23;3.23;;;24.00;70.70;;;;;;5115849;28;20431;-78
2022/05/09 10:04:56;;;;;;;6.27;2.63;;;24.00;69.90;;;;;;5114246;28;20524;-77
2022/05/09 10:07:31;;;;;;;7.57;4.17;;;24.00;69.50;;;;;;5114061;28;20443;-78
2022/05/09 10:10:11;;;;;;;6.30;3.47;;;24.00;69.00;;;;;;5113829;28;20467;-77
2022/05/09 10:12:41;;;;;;;5.53;2.77;;;24.10;69.10;;;;;;5113604;28;20439;-77
2022/05/09 10:15:27;;;;;;;7.20;3.37;;;24.10;69.40;;;;;;5114828;28;20443;-77
2022/05/09 10:17:56;;;;;;;4.20;2.93;;;24.20;68.90;;;;;;5114881;28;20471;-77
2022/05/09 10:20:34;;;;;;;6.17;2.87;;;24.30;68.90;;;;;;5114988;28;21030;-77
2022/05/09 10:26:00;;;;;;;4.67;2.50;;;24.40;68.30;;;;;;5113369;28;20471;-77
2022/05/09 10:28:32;;;;;;;5.10;2.63;;;24.50;67.50;;;;;;5113105;28;20439;-77
2022/05/09 10:31:21;;;;;;;4.27;2.90;;;24.50;67.30;;;;;;5112736;28;21007;-77
2022/05/09 10:33:58;;;;;;;4.30;2.60;;;24.50;67.00;;;;;;5113103;28;20967;-77
2022/05/09 10:36:30;;;;;;;3.83;2.20;;;24.60;67.10;;;;;;5114686;28;20454;-77
2022/05/09 10:39:03;;;;;;;4.70;2.60;;;24.60;66.50;;;;;;5112346;28;20466;-77
2022/05/09 10:41:40;;;;;;;3.90;2.50;;;24.70;66.40;;;;;;5112906;28;20479;-77
2022/05/09 10:44:13;;;;;;;5.03;2.13;;;24.70;66.70;;;;;;5112632;28;20513;-77
2022/05/09 10:46:51;;;;;;;6.77;3.10;;;24.80;66.00;;;;;;5112536;28;20474;-77
2022/05/09 10:49:33;;;;;;;5.37;2.50;;;24.80;65.20;;;;;;5112608;28;20500;-77
2022/05/09 10:52:26;;;;;;;5.53;2.87;;;24.70;64.20;;;;;;5114022;28;20466;-77
2022/05/09 10:55:03;;;;;;;5.70;3.33;;;24.70;64.60;;;;;;5114478;28;20773;-77
2022/05/09 10:57:39;;;;;;;6.67;3.20;;;24.70;64.70;;;;;;5112644;28;20435;-77
2022/05/09 11:00:18;;;;;;;5.10;2.27;;;24.80;64.60;;;;;;5112334;28;20462;-77
2022/05/09 11:02:57;;;;;;;3.60;2.00;;;24.80;64.20;;;;;;5112451;28;20475;-77
2022/05/09 11:05:29;;;;;;;5.13;2.93;;;24.90;63.60;;;;;;5112357;28;20439;-77
2022/05/09 11:08:06;;;;;;;4.47;2.47;;;24.90;63.90;;;;;;5113611;28;20897;-77
2022/05/09 11:10:41;;;;;;;4.20;2.10;;;24.90;63.10;;;;;;5112204;28;20510;-77
2022/05/09 11:13:21;;;;;;;5.20;3.00;;;24.90;63.00;;;;;;5112243;28;20430;-77
2022/05/09 11:16:00;;;;;;;4.33;2.50;;;24.90;62.60;;;;;;5113530;28;20886;-77
2022/05/09 11:18:56;;;;;;;6.07;3.20;;;24.90;62.60;;;;;;5112248;28;20470;-77
2022/05/09 11:21:37;;;;;;;4.20;2.37;;;24.90;62.60;;;;;;5112437;28;20468;-77
2022/05/09 11:24:15;;;;;;;3.60;2.80;;;24.90;62.80;;;;;;5112242;28;20447;-77
2022/05/09 11:26:50;;;;;;;3.87;2.33;;;25.00;62.60;;;;;;5112206;28;20453;-77
2022/05/09 11:29:46;;;;;;;3.60;2.23;;;25.00;62.80;;;;;;5113680;28;20458;-77
2022/05/09 11:32:29;;;;;;;5.50;3.60;;;25.00;62.60;;;;;;5112077;28;20561;-77
2022/05/09 11:35:16;;;;;;;7.03;5.40;;;25.10;62.90;;;;;;5112079;28;20444;-77
2022/05/09 11:37:56;;;;;;;4.03;2.63;;;25.10;62.80;;;;;;5111921;28;20793;-77
2022/05/09 11:40:32;;;;;;;4.10;2.50;;;25.10;62.60;;;;;;5113286;28;20451;-77
2022/05/09 11:43:32;;;;;;;3.70;2.10;;;25.10;62.40;;;;;;5114531;28;20852;-77
2022/05/09 11:46:19;;;;;;;5.37;2.57;;;25.10;61.80;;;;;;5115921;28;20466;-77
2022/05/09 11:49:03;;;;;;;3.40;2.20;;;25.00;61.60;;;;;;5116322;28;20444;-77
2022/05/09 11:51:43;;;;;;;4.40;2.17;;;25.00;61.10;;;;;;5115940;28;20470;-77
2022/05/09 11:54:15;;;;;;;3.70;2.20;;;24.90;61.30;;;;;;5115903;28;20801;-77
2022/05/09 11:56:48;;;;;;;3.63;2.53;;;24.90;61.90;;;;;;5115737;28;20432;-77
2022/05/09 11:59:22;;;;;;;4.83;2.70;;;24.90;61.80;;;;;;5115863;28;20446;-77
2022/05/09 12:02:00;;;;;;;3.07;2.50;;;24.90;62.00;;;;;;5115576;28;20442;-77
2022/05/09 12:04:31;;;;;;;7.37;3.60;;;24.90;62.20;;;;;;5117074;28;20412;-77
2022/05/09 12:07:01;;;;;;;4.87;2.80;;;24.90;62.40;;;;;;5117092;28;20435;-77
2022/05/09 12:10:01;;;;;;;7.27;3.17;;;24.90;62.20;;;;;;5115461;28;20797;-77
2022/05/09 12:12:49;;;;;;;6.63;2.97;;;24.90;62.00;;;;;;5115467;28;20455;-77
2022/05/09 12:15:49;;;;;;;4.03;2.40;;;24.90;62.20;;;;;;5116730;28;20944;-77
2022/05/09 12:18:30;;;;;;;5.50;3.30;;;24.90;61.90;;;;;;5101092;28;20454;-77
2022/05/09 12:21:18;;;;;;;4.47;2.73;;;24.90;61.60;;;;;;5116555;28;20474;-79
2022/05/09 12:24:32;;;;;;;4.93;2.50;;;24.80;61.60;;;;;;5116621;28;20962;-77
2022/05/09 12:27:43;;;;;;;3.87;2.60;;;24.80;61.60;;;;;;5116176;28;20816;-78
2022/05/09 12:30:14;;;;;;;7.80;2.70;;;24.80;61.60;;;;;;5116121;28;21050;-77
2022/05/09 12:32:48;;;;;;;3.90;2.67;;;24.70;61.60;;;;;;5116232;28;20899;-77
2022/05/09 12:35:17;;;;;;;6.30;3.80;;;24.70;61.70;;;;;;5116605;28;20443;-78
2022/05/09 12:37:54;;;;;;;4.90;2.60;;;24.70;62.00;;;;;;5116052;28;20438;-78
2022/05/09 12:40:27;;;;;;;4.30;2.80;;;24.60;62.10;;;;;;5116242;28;20494;-77
2022/05/09 12:42:58;;;;;;;7.47;3.00;;;24.60;61.80;;;;;;5116443;28;20461;-78
2022/05/09 12:45:27;;;;;;;4.97;3.20;;;24.60;61.80;;;;;;5116084;28;20479;-77
2022/05/09 12:47:56;;;;;;;13.17;8.70;;;24.60;61.90;;;;;;5116031;28;21086;-77
2022/05/09 12:50:27;;;;;;;7.07;3.40;;;24.60;62.10;;;;;;5115322;28;20456;-77
2022/05/09 12:52:59;;;;;;;3.03;2.30;;;24.60;61.70;;;;;;5114840;28;20972;-77
2022/05/09 12:55:58;;;;;;;2.93;2.50;;;24.60;61.40;;;;;;5116588;27;20428;-77
2022/05/09 12:58:30;;;;;;;6.40;2.40;;;24.50;61.50;;;;;;5114996;28;20436;-77
2022/05/09 13:01:03;;;;;;;4.40;2.40;;;24.50;61.60;;;;;;5114595;28;20463;-77
2022/05/09 13:03:56;;;;;;;4.00;2.37;;;24.50;61.40;;;;;;5114444;28;20451;-77
2022/05/09 13:06:27;;;;;;;5.10;2.77;;;24.50;61.20;;;;;;5115797;28;20482;-77
2022/05/09 13:08:56;;;;;;;4.63;2.40;;;24.50;61.20;;;;;;5114229;28;20508;-77
2022/05/09 13:11:29;;;;;;;4.47;2.80;;;24.50;61.20;;;;;;5113999;28;20565;-77
2022/05/09 13:14:07;;;;;;;3.83;2.40;;;24.50;61.10;;;;;;5114091;28;20443;-77
2022/05/09 13:16:39;;;;;;;8.70;2.53;;;24.50;60.90;;;;;;5114042;28;20793;-77
2022/05/09 13:19:14;;;;;;;7.57;3.40;;;24.50;61.10;;;;;;5115569;28;20451;-76
2022/05/09 13:21:42;;;;;;;5.70;2.30;;;24.40;60.90;;;;;;5118098;28;20848;-78
2022/05/09 13:24:20;;;;;;;6.13;2.53;;;24.40;60.90;;;;;;5116198;28;20447;-77
2022/05/09 13:26:53;;;;;;;4.40;3.07;;;24.40;61.00;;;;;;5116139;28;20516;-77
2022/05/09 13:29:31;;;;;;;4.27;2.80;;;24.40;61.10;;;;;;5114740;28;20439;-77